createdAt,value
2018-08-13T00:00:39.351Z,2.87
2018-08-13T00:03:06.411Z,3.30
2018-08-13T00:05:33.455Z,3.70
2018-08-13T00:08:00.480Z,5.37
2018-08-13T00:10:27.610Z,3.40
2018-08-13T00:12:54.700Z,3.70
2018-08-13T00:15:21.807Z,2.90
2018-08-13T00:17:48.899Z,3.37
2018-08-13T00:20:16.404Z,4.50
2018-08-13T00:22:43.471Z,3.00
2018-08-13T00:25:10.523Z,8.90
2018-08-13T00:27:37.550Z,12.80
2018-08-13T00:30:04.791Z,4.40
2018-08-13T00:32:31.832Z,4.07
2018-08-13T00:34:58.868Z,4.10
2018-08-13T00:37:25.859Z,3.70
2018-08-13T00:39:52.871Z,4.10
2018-08-13T00:42:19.971Z,3.10
2018-08-13T00:44:47.069Z,3.60
2018-08-13T00:47:14.116Z,3.20
2018-08-13T00:49:41.139Z,3.17
2018-08-13T00:52:08.310Z,3.50
2018-08-13T00:54:35.311Z,3.30
2018-08-13T00:57:02.317Z,3.77
2018-08-13T00:59:29.378Z,3.50
2018-08-13T01:01:56.423Z,3.40
2018-08-13T01:04:23.499Z,3.40
2018-08-13T01:06:50.572Z,3.43
2018-08-13T01:09:17.563Z,3.60
2018-08-13T01:11:44.547Z,3.50
2018-08-13T01:14:11.586Z,2.90
2018-08-13T01:16:38.630Z,3.73
2018-08-13T01:19:05.712Z,3.20
2018-08-13T01:21:32.748Z,3.50
2018-08-13T01:23:59.855Z,3.33
2018-08-13T01:26:26.897Z,3.23
2018-08-13T01:28:53.915Z,3.37
2018-08-13T01:31:20.954Z,3.00
2018-08-13T01:33:48.059Z,2.80
2018-08-13T01:36:15.097Z,3.63
2018-08-13T01:38:42.179Z,3.80
2018-08-13T01:41:09.214Z,3.10
2018-08-13T01:43:36.278Z,3.50
2018-08-13T01:46:03.336Z,3.23
2018-08-13T01:48:30.379Z,3.50
2018-08-13T01:50:57.419Z,3.50
2018-08-13T01:53:24.477Z,3.83
2018-08-13T01:55:51.515Z,3.10
2018-08-13T01:58:18.529Z,2.77
2018-08-13T02:00:45.520Z,3.23
2018-08-13T02:03:12.512Z,3.30
2018-08-13T02:05:39.507Z,3.53
2018-08-13T02:08:06.636Z,3.37
2018-08-13T02:10:33.790Z,3.47
2018-08-13T02:13:00.842Z,3.97
2018-08-13T02:15:27.989Z,3.57
2018-08-13T02:17:55.012Z,3.40
2018-08-13T02:20:22.058Z,3.63
2018-08-13T02:22:49.020Z,3.67
2018-08-13T02:25:16.051Z,3.53
2018-08-13T02:27:43.045Z,3.60
2018-08-13T02:30:11.084Z,3.50
2018-08-13T02:32:42.058Z,3.57
2018-08-13T02:35:12.073Z,3.23
2018-08-13T02:37:39.638Z,3.70
2018-08-13T02:40:07.989Z,4.17
2018-08-13T02:42:35.143Z,3.40
2018-08-13T02:45:02.393Z,3.67
2018-08-13T02:47:29.402Z,3.80
2018-08-13T02:49:56.420Z,4.53
2018-08-13T02:52:23.463Z,4.30
2018-08-13T02:54:50.557Z,3.63
2018-08-13T02:57:17.564Z,3.40
2018-08-13T02:59:45.255Z,4.03
2018-08-13T03:02:12.327Z,58.43
2018-08-13T03:04:39.398Z,6.50
2018-08-13T03:07:06.342Z,36.27
2018-08-13T03:09:33.375Z,13.87
2018-08-13T03:12:00.381Z,29.93
2018-08-13T03:14:27.391Z,12.63
2018-08-13T03:16:54.443Z,10.93
2018-08-13T03:19:21.455Z,18.03
2018-08-13T03:21:48.445Z,6.93
2018-08-13T03:24:15.507Z,6.97
2018-08-13T03:26:42.567Z,8.20
2018-08-13T03:29:09.582Z,7.27
2018-08-13T03:31:36.588Z,6.10
2018-08-13T03:34:03.591Z,5.90
2018-08-13T03:36:30.655Z,4.77
2018-08-13T03:38:57.752Z,5.67
2018-08-13T03:41:24.745Z,4.80
2018-08-13T03:43:51.771Z,4.60
2018-08-13T03:46:18.867Z,4.10
2018-08-13T03:48:45.915Z,4.20
2018-08-13T03:51:12.971Z,4.47
2018-08-13T03:53:40.129Z,4.43
2018-08-13T03:56:07.370Z,3.90
2018-08-13T03:58:34.358Z,4.30
2018-08-13T04:01:02.399Z,3.90
2018-08-13T04:03:29.964Z,3.60
2018-08-13T04:05:57.050Z,4.17
2018-08-13T04:08:24.339Z,3.57
2018-08-13T04:10:51.358Z,3.47
2018-08-13T04:13:18.380Z,4.10
2018-08-13T04:15:45.481Z,4.23
2018-08-13T04:18:13.427Z,4.30
2018-08-13T04:20:40.513Z,4.70
2018-08-13T04:23:07.524Z,5.20
2018-08-13T04:25:34.564Z,3.93
2018-08-13T04:28:01.576Z,4.00
2018-08-13T04:30:28.636Z,4.93
2018-08-13T04:32:55.655Z,4.80
2018-08-13T04:35:22.675Z,3.87
2018-08-13T04:37:49.668Z,3.70
2018-08-13T04:40:17.771Z,3.83
2018-08-13T04:42:45.789Z,3.90
2018-08-13T04:45:12.835Z,3.80
2018-08-13T04:47:44.131Z,3.60
2018-08-13T04:50:11.127Z,3.77
2018-08-13T04:52:38.215Z,4.00
2018-08-13T04:55:06.509Z,3.90
2018-08-13T04:57:33.493Z,4.00
2018-08-13T05:00:00.509Z,3.80
2018-08-13T05:02:27.510Z,3.57
2018-08-13T05:04:54.819Z,4.07
2018-08-13T05:07:21.865Z,3.73
2018-08-13T05:09:48.851Z,3.50
2018-08-13T05:12:15.912Z,3.70
2018-08-13T05:14:42.951Z,3.73
2018-08-13T05:17:09.968Z,3.70
2018-08-13T05:19:37.064Z,3.70
2018-08-13T05:22:04.176Z,3.60
2018-08-13T05:24:31.403Z,3.40
2018-08-13T05:26:58.518Z,3.37
2018-08-13T05:29:25.662Z,3.77
2018-08-13T05:31:52.665Z,3.70
2018-08-13T05:34:19.724Z,3.60
2018-08-13T05:36:46.805Z,3.40
2018-08-13T05:39:13.801Z,3.53
2018-08-13T05:41:40.959Z,3.30
2018-08-13T05:44:08.113Z,3.80
2018-08-13T05:46:35.362Z,3.57
2018-08-13T05:49:02.409Z,3.90
2018-08-13T05:51:29.446Z,3.43
2018-08-13T05:53:56.504Z,3.30
2018-08-13T05:56:23.609Z,3.57
2018-08-13T05:58:50.647Z,3.73
2018-08-13T06:01:17.676Z,3.50
2018-08-13T06:03:44.751Z,3.57
2018-08-13T06:06:11.768Z,3.17
2018-08-13T06:08:38.867Z,4.40
2018-08-13T06:11:06.254Z,3.63
2018-08-13T06:13:33.308Z,3.90
2018-08-13T06:16:00.335Z,3.70
2018-08-13T06:18:27.336Z,3.97
2018-08-13T06:20:54.442Z,3.33
2018-08-13T06:23:21.471Z,3.17
2018-08-13T06:25:48.603Z,3.90
2018-08-13T06:28:15.794Z,2.90
2018-08-13T06:30:42.718Z,3.20
2018-08-13T06:33:09.719Z,3.30
2018-08-13T06:35:36.753Z,2.50
2018-08-13T06:38:03.945Z,3.17
2018-08-13T06:40:31.135Z,3.23
2018-08-13T06:42:58.211Z,3.10
2018-08-13T06:45:25.302Z,3.50
2018-08-13T06:47:52.379Z,2.97
2018-08-13T06:50:19.406Z,3.03
2018-08-13T06:52:46.403Z,2.83
2018-08-13T06:55:13.411Z,2.70
2018-08-13T06:57:40.595Z,2.93
2018-08-13T07:00:10.947Z,2.53
2018-08-13T07:02:37.970Z,3.20
2018-08-13T07:05:06.585Z,3.40
2018-08-13T07:07:33.683Z,3.20
2018-08-13T07:10:00.678Z,3.70
2018-08-13T07:12:27.745Z,2.80
2018-08-13T07:14:54.907Z,2.60
2018-08-13T07:17:21.884Z,2.60
2018-08-13T07:19:49.139Z,3.30
2018-08-13T07:22:16.149Z,2.70
2018-08-13T07:24:43.139Z,5.90
2018-08-13T07:27:10.237Z,8.10
2018-08-13T07:29:37.400Z,4.60
2018-08-13T07:32:04.370Z,5.13
2018-08-13T07:34:31.476Z,8.30
2018-08-13T07:36:58.462Z,5.33
2018-08-13T07:39:25.508Z,5.90
2018-08-13T07:41:52.564Z,9.40
2018-08-13T07:44:19.581Z,4.67
2018-08-13T07:46:46.668Z,3.50
2018-08-13T07:49:13.797Z,4.80
2018-08-13T07:51:40.859Z,3.50
2018-08-13T07:54:07.815Z,5.17
2018-08-13T07:56:34.920Z,8.60
2018-08-13T07:59:05.988Z,7.90
2018-08-13T08:01:33.271Z,6.93
2018-08-13T08:04:12.523Z,5.13
2018-08-13T08:06:39.775Z,3.50
2018-08-13T08:09:08.888Z,3.60
2018-08-13T08:11:35.950Z,3.37
2018-08-13T08:14:04.058Z,4.70
2018-08-13T08:16:31.139Z,4.40
2018-08-13T08:18:58.239Z,2.77
2018-08-13T08:21:25.394Z,2.83
2018-08-13T08:23:52.344Z,2.33
2018-08-13T08:26:19.375Z,3.10
2018-08-13T08:28:46.431Z,2.40
2018-08-13T08:31:13.511Z,2.30
2018-08-13T08:33:40.514Z,3.37
2018-08-13T08:36:07.521Z,3.00
2018-08-13T08:38:34.763Z,2.60
2018-08-13T08:41:01.775Z,2.50
2018-08-13T08:43:28.939Z,2.10
2018-08-13T08:45:55.979Z,2.77
2018-08-13T08:48:23.069Z,2.50
2018-08-13T08:50:50.119Z,3.47
2018-08-13T08:53:17.166Z,3.00
2018-08-13T08:55:44.176Z,2.17
2018-08-13T08:58:11.165Z,2.47
2018-08-13T09:00:38.230Z,2.80
2018-08-13T09:03:05.228Z,2.37
2018-08-13T09:05:32.251Z,3.37
2018-08-13T09:07:59.270Z,2.77
2018-08-13T09:10:26.280Z,1.90
2018-08-13T09:12:53.299Z,2.27
2018-08-13T09:15:20.306Z,2.07
2018-08-13T09:17:59.288Z,2.60
2018-08-13T09:20:37.792Z,2.10
2018-08-13T09:23:16.411Z,2.40
2018-08-13T09:25:55.092Z,2.23
2018-08-13T09:28:33.756Z,2.37
2018-08-13T09:32:16.161Z,2.07
2018-08-13T09:34:49.592Z,6.53
2018-08-13T09:37:17.599Z,3.10
2018-08-13T09:39:44.928Z,13.97
2018-08-13T09:42:12.076Z,7.60
2018-08-13T09:44:39.207Z,12.27
2018-08-13T09:47:06.211Z,6.90
2018-08-13T09:49:34.177Z,55.37
2018-08-13T09:52:01.268Z,38.50
2018-08-13T09:54:28.335Z,7.93
2018-08-13T09:56:55.439Z,8.03
2018-08-13T09:59:22.796Z,12.77
2018-08-13T10:01:49.815Z,4.93
2018-08-13T10:04:16.823Z,18.37
2018-08-13T10:06:43.858Z,11.37
2018-08-13T10:09:10.932Z,9.23
2018-08-13T10:11:38.181Z,5.13
2018-08-13T10:14:05.209Z,36.20
2018-08-13T10:16:32.277Z,49.07
2018-08-13T10:18:59.292Z,47.13
2018-08-13T10:21:26.351Z,7.23
2018-08-13T10:23:53.663Z,18.50
2018-08-13T10:26:20.768Z,31.00
2018-08-13T10:28:47.834Z,13.97
2018-08-13T10:31:14.922Z,8.83
2018-08-13T10:33:42.016Z,9.90
2018-08-13T10:36:09.381Z,5.90
2018-08-13T10:38:36.966Z,55.70
2018-08-13T10:41:04.168Z,27.57
2018-08-13T10:43:31.821Z,34.87
2018-08-13T10:45:59.161Z,47.53
2018-08-13T10:48:26.772Z,6.00
2018-08-13T10:50:54.080Z,10.67
2018-08-13T10:53:21.190Z,8.97
2018-08-13T10:55:48.400Z,12.57
2018-08-13T10:58:15.420Z,2.30
2018-08-13T11:00:42.631Z,9.23
2018-08-13T11:03:12.441Z,30.00
2018-08-13T11:05:39.780Z,20.73
2018-08-13T11:08:07.151Z,4.83
2018-08-13T11:10:34.276Z,4.10
2018-08-13T11:13:01.344Z,5.10
2018-08-13T11:15:28.719Z,50.67
2018-08-13T11:17:55.768Z,25.10
2018-08-13T11:20:23.048Z,28.93
2018-08-13T11:22:50.226Z,20.90
2018-08-13T11:25:17.941Z,4.80
2018-08-13T11:27:45.199Z,4.40
2018-08-13T11:30:14.811Z,7.07
2018-08-13T11:32:43.593Z,19.57
2018-08-13T11:35:10.679Z,5.27
2018-08-13T11:37:37.771Z,4.97
2018-08-13T11:40:09.650Z,4.47
2018-08-13T11:42:36.671Z,3.90
2018-08-13T11:45:03.820Z,3.03
2018-08-13T11:47:30.835Z,4.80
2018-08-13T11:49:57.991Z,6.20
2018-08-13T11:52:25.405Z,6.30
2018-08-13T11:54:52.592Z,5.50
2018-08-13T11:57:19.657Z,6.07
2018-08-13T11:59:46.717Z,15.90
2018-08-13T12:02:13.826Z,6.07
2018-08-13T12:04:40.880Z,6.50
2018-08-13T12:07:07.988Z,5.07
2018-08-13T12:09:35.020Z,5.23
2018-08-13T12:12:02.121Z,9.63
2018-08-13T12:14:29.158Z,3.27
2018-08-13T12:16:56.305Z,5.30
2018-08-13T12:19:23.406Z,3.17
2018-08-13T12:21:50.627Z,3.60
2018-08-13T12:24:17.803Z,3.47
2018-08-13T12:26:44.918Z,2.27
2018-08-13T12:29:11.991Z,4.33
2018-08-13T12:31:39.388Z,2.70
2018-08-13T12:34:06.472Z,3.50
2018-08-13T12:36:33.580Z,2.50
2018-08-13T12:39:00.998Z,3.27
2018-08-13T12:41:28.028Z,2.10
2018-08-13T12:43:55.076Z,3.30
2018-08-13T12:46:22.103Z,2.90
2018-08-13T12:48:49.188Z,4.03
2018-08-13T12:51:16.224Z,2.87
2018-08-13T12:53:43.340Z,2.10
2018-08-13T12:56:10.462Z,2.10
2018-08-13T12:58:37.513Z,2.70
2018-08-13T13:01:10.520Z,2.00
2018-08-13T13:03:37.963Z,3.10
2018-08-13T13:06:05.047Z,2.10
2018-08-13T13:08:32.153Z,20.30
2018-08-13T13:10:59.147Z,13.23
2018-08-13T13:13:26.563Z,11.50
2018-08-13T13:15:53.544Z,8.13
2018-08-13T13:18:20.544Z,17.47
2018-08-13T13:20:47.564Z,5.10
2018-08-13T13:23:14.627Z,9.23
2018-08-13T13:25:41.704Z,5.70
2018-08-13T13:28:08.861Z,4.83
2018-08-13T13:30:35.868Z,12.70
2018-08-13T13:33:02.920Z,15.53
2018-08-13T13:35:29.960Z,8.73
2018-08-13T13:37:56.979Z,5.27
2018-08-13T13:40:24.018Z,11.07
2018-08-13T13:42:51.642Z,11.30
2018-08-13T13:45:20.366Z,6.50
2018-08-13T13:47:48.260Z,3.70
2018-08-13T13:50:17.430Z,6.37
2018-08-13T13:52:46.318Z,6.07
2018-08-13T13:55:14.641Z,3.70
2018-08-13T13:57:42.664Z,3.50
2018-08-13T14:00:15.214Z,3.80
2018-08-13T14:02:43.239Z,4.40
2018-08-13T14:05:10.992Z,2.70
2018-08-13T14:07:38.529Z,4.30
2018-08-13T14:10:07.201Z,2.90
2018-08-13T14:12:34.271Z,3.00
2018-08-13T14:15:01.383Z,4.03
2018-08-13T14:17:28.468Z,2.87
2018-08-13T14:19:55.651Z,4.17
2018-08-13T14:22:22.777Z,3.20
2018-08-13T14:24:49.763Z,3.10
2018-08-13T14:27:16.800Z,4.93
2018-08-13T14:29:43.798Z,1.97
2018-08-13T14:32:10.833Z,2.57
2018-08-13T14:34:37.958Z,3.90
2018-08-13T14:37:05.000Z,2.57
2018-08-13T14:39:32.056Z,2.17
2018-08-13T14:41:59.080Z,2.10
2018-08-13T14:44:26.164Z,2.57
2018-08-13T14:46:53.170Z,5.00
2018-08-13T14:49:20.264Z,37.73
2018-08-13T14:51:47.272Z,1.80
2018-08-13T14:54:14.303Z,6.97
2018-08-13T14:56:41.639Z,1.80
2018-08-13T14:59:08.732Z,15.63
2018-08-13T15:01:36.527Z,4.73
2018-08-13T15:04:04.328Z,2.47
2018-08-13T15:06:31.360Z,3.30
2018-08-13T15:08:58.559Z,2.80
2018-08-13T15:11:30.168Z,3.97
2018-08-13T15:13:57.153Z,12.17
2018-08-13T15:16:24.188Z,8.10
2018-08-13T15:18:51.236Z,7.70
2018-08-13T15:21:19.337Z,7.90
2018-08-13T15:23:47.083Z,5.87
2018-08-13T15:26:14.111Z,4.30
2018-08-13T15:28:41.103Z,4.60
2018-08-13T15:31:08.099Z,3.43
2018-08-13T15:33:35.263Z,6.20
2018-08-13T15:36:02.320Z,4.20
2018-08-13T15:38:29.352Z,3.50
2018-08-13T15:40:56.336Z,8.40
2018-08-13T15:43:24.379Z,8.60
2018-08-13T15:45:51.482Z,15.67
2018-08-13T15:48:18.476Z,4.40
2018-08-13T15:50:55.570Z,5.20
2018-08-13T15:53:59.215Z,4.13
2018-08-13T15:56:46.666Z,6.73
2018-08-13T15:59:36.181Z,3.20
2018-08-13T16:02:23.582Z,4.45
2018-08-13T16:05:14.345Z,4.70
2018-08-13T16:08:14.167Z,3.73
2018-08-13T16:11:03.422Z,3.40
2018-08-13T16:13:31.040Z,13.97
2018-08-13T16:15:58.264Z,5.93
2018-08-13T16:18:25.519Z,7.87
2018-08-13T16:20:52.537Z,3.50
2018-08-13T16:23:19.564Z,4.27
2018-08-13T16:25:46.613Z,3.57
2018-08-13T16:28:13.959Z,3.50
2018-08-13T16:30:41.033Z,4.00
2018-08-13T16:33:08.256Z,3.27
2018-08-13T16:35:35.374Z,4.13
2018-08-13T16:38:02.379Z,3.20
2018-08-13T16:40:29.658Z,2.50
2018-08-13T16:42:56.906Z,2.40
2018-08-13T16:45:23.913Z,3.83
2018-08-13T16:47:51.167Z,4.23
2018-08-13T16:50:23.218Z,4.20
2018-08-13T16:52:50.521Z,3.20
2018-08-13T16:55:23.539Z,3.40
2018-08-13T16:57:51.241Z,3.13
2018-08-13T17:00:22.211Z,3.17
2018-08-13T17:02:49.252Z,4.17
2018-08-13T17:05:16.707Z,4.20
2018-08-13T17:07:43.868Z,3.27
2018-08-13T17:10:16.187Z,3.50
2018-08-13T17:12:43.236Z,3.70
2018-08-13T17:15:10.792Z,3.37
2018-08-13T17:17:38.621Z,3.90
2018-08-13T17:20:07.508Z,2.63
2018-08-13T17:22:34.544Z,2.57
2018-08-13T17:25:01.655Z,2.57
2018-08-13T17:27:28.599Z,2.97
2018-08-13T17:29:55.888Z,3.53
2018-08-13T17:32:22.965Z,3.07
2018-08-13T17:34:50.029Z,2.93
2018-08-13T17:37:17.041Z,3.80
2018-08-13T17:39:44.529Z,3.30
2018-08-13T17:42:11.753Z,4.40
2018-08-13T17:44:38.779Z,7.60
2018-08-13T17:47:05.828Z,18.00
2018-08-13T17:49:32.927Z,86.80
2018-08-13T17:52:00.371Z,35.73
2018-08-13T17:54:27.397Z,4.00
2018-08-13T17:56:54.395Z,12.53
2018-08-13T17:59:21.393Z,5.40
2018-08-13T18:01:48.466Z,6.27
2018-08-13T18:04:15.525Z,5.57
2018-08-13T18:06:42.747Z,4.37
2018-08-13T18:09:10.930Z,8.87
2018-08-13T18:11:38.811Z,31.17
2018-08-13T18:14:06.309Z,24.20
2018-08-13T18:16:33.297Z,8.10
2018-08-13T18:19:00.432Z,3.77
2018-08-13T18:21:27.407Z,4.63
2018-08-13T18:23:54.440Z,5.00
2018-08-13T18:26:21.709Z,10.53
2018-08-13T18:28:49.007Z,6.50
2018-08-13T18:31:16.092Z,6.20
2018-08-13T18:33:43.191Z,6.53
2018-08-13T18:36:10.435Z,6.70
2018-08-13T18:38:38.105Z,33.80
2018-08-13T18:41:05.179Z,7.27
2018-08-13T18:43:32.260Z,14.37
2018-08-13T18:45:59.296Z,35.77
2018-08-13T18:48:26.353Z,7.63
2018-08-13T18:50:53.712Z,7.30
2018-08-13T18:53:20.825Z,7.73
2018-08-13T18:55:47.840Z,35.33
2018-08-13T18:58:15.157Z,8.30
2018-08-13T19:00:44.750Z,5.87
2018-08-13T19:03:11.983Z,6.93
2018-08-13T19:05:39.014Z,10.07
2018-08-13T19:08:06.070Z,11.90
2018-08-13T19:10:33.441Z,10.40
2018-08-13T19:13:00.529Z,19.27
2018-08-13T19:15:28.127Z,8.67
2018-08-13T19:17:55.392Z,7.80
2018-08-13T19:20:22.739Z,8.73
2018-08-13T19:22:49.819Z,9.53
2018-08-13T19:25:19.744Z,8.40
2018-08-13T19:27:46.849Z,10.03
2018-08-13T19:30:15.312Z,10.47
2018-08-13T19:32:43.299Z,8.20
2018-08-13T19:35:10.805Z,6.73
2018-08-13T19:37:38.245Z,7.40
2018-08-13T19:40:08.450Z,9.53
2018-08-13T19:42:35.526Z,6.13
2018-08-13T19:45:02.992Z,11.70
2018-08-13T19:47:30.097Z,6.13
2018-08-13T19:49:57.244Z,7.10
2018-08-13T19:52:24.278Z,11.60
2018-08-13T19:54:51.309Z,9.43
2018-08-13T19:57:18.645Z,6.40
2018-08-13T19:59:45.674Z,7.73
2018-08-13T20:02:12.733Z,6.77
2018-08-13T20:04:39.753Z,6.13
2018-08-13T20:07:06.812Z,6.30
2018-08-13T20:09:33.845Z,5.87
2018-08-13T20:12:00.903Z,6.57
2018-08-13T20:14:28.018Z,6.30
2018-08-13T20:16:55.082Z,6.50
2018-08-13T20:19:22.109Z,6.20
2018-08-13T20:21:49.793Z,6.90
2018-08-13T20:24:16.840Z,5.70
2018-08-13T20:26:43.875Z,6.90
2018-08-13T20:29:11.592Z,6.47
2018-08-13T20:31:45.467Z,8.20
2018-08-13T20:34:12.999Z,13.50
2018-08-13T20:36:40.024Z,10.97
2018-08-13T20:39:12.025Z,7.70
2018-08-13T20:41:39.501Z,7.33
2018-08-13T20:44:06.692Z,6.80
2018-08-13T20:46:34.196Z,6.50
2018-08-13T20:49:01.228Z,5.83
2018-08-13T20:51:28.285Z,6.53
2018-08-13T20:53:55.339Z,5.87
2018-08-13T20:56:22.347Z,7.50
2018-08-13T20:58:49.405Z,8.50
2018-08-13T21:01:16.483Z,6.30
2018-08-13T21:03:43.577Z,6.63
2018-08-13T21:06:10.572Z,10.10
2018-08-13T21:08:37.675Z,6.80
2018-08-13T21:11:04.782Z,9.07
2018-08-13T21:13:32.142Z,8.63
2018-08-13T21:15:59.251Z,7.70
2018-08-13T21:18:26.227Z,12.67
2018-08-13T21:20:53.316Z,9.07
2018-08-13T21:23:20.307Z,6.40
2018-08-13T21:25:47.552Z,7.40
2018-08-13T21:28:14.902Z,8.53
2018-08-13T21:30:42.319Z,6.93
2018-08-13T21:33:09.511Z,8.23
2018-08-13T21:35:36.597Z,8.73
2018-08-13T21:38:03.657Z,9.10
2018-08-13T21:40:30.831Z,10.67
2018-08-13T21:42:57.931Z,10.90
2018-08-13T21:45:25.072Z,9.87
2018-08-13T21:47:52.111Z,10.13
2018-08-13T21:50:20.534Z,10.77
2018-08-13T21:52:48.486Z,9.57
2018-08-13T21:55:15.630Z,11.70
2018-08-13T21:57:42.760Z,11.00
2018-08-13T22:00:21.238Z,10.60
2018-08-13T22:02:48.602Z,11.30
2018-08-13T22:05:15.794Z,12.63
2018-08-13T22:07:42.936Z,12.77
2018-08-13T22:10:10.037Z,12.83
2018-08-13T22:12:37.719Z,13.33
2018-08-13T22:15:22.502Z,15.13
2018-08-13T22:17:49.730Z,15.97
2018-08-13T22:20:17.146Z,15.67
2018-08-13T22:22:44.328Z,16.27
2018-08-13T22:25:16.396Z,15.00
2018-08-13T22:27:43.523Z,16.57
2018-08-13T22:30:10.864Z,19.73
2018-08-13T22:32:37.920Z,18.33
2018-08-13T22:35:06.032Z,17.00
2018-08-13T22:37:33.467Z,18.70
2018-08-13T22:40:00.468Z,19.23
2018-08-13T22:42:27.483Z,19.87
2018-08-13T22:44:54.527Z,20.60
2018-08-13T22:47:21.591Z,20.97
2018-08-13T22:49:48.629Z,22.20
2018-08-13T22:52:15.754Z,21.03
2018-08-13T22:54:42.707Z,25.17
2018-08-13T22:57:09.756Z,24.00
2018-08-13T22:59:36.852Z,23.50
2018-08-13T23:02:03.890Z,25.13
2018-08-13T23:04:31.009Z,25.80
2018-08-13T23:06:58.314Z,27.40
2018-08-13T23:09:25.344Z,25.30
2018-08-13T23:11:52.384Z,26.93
2018-08-13T23:14:19.555Z,29.90
2018-08-13T23:16:46.900Z,33.37
2018-08-13T23:19:13.893Z,29.30
2018-08-13T23:21:40.880Z,31.37
2018-08-13T23:24:07.874Z,30.17
2018-08-13T23:26:34.947Z,32.90
2018-08-13T23:29:02.018Z,32.50
2018-08-13T23:31:29.039Z,36.27
2018-08-13T23:33:56.082Z,32.33
2018-08-13T23:36:23.155Z,27.70
2018-08-13T23:38:50.244Z,32.43
2018-08-13T23:41:17.291Z,35.80
2018-08-13T23:43:44.455Z,37.70
2018-08-13T23:46:11.510Z,36.43
2018-08-13T23:48:38.614Z,35.50
2018-08-13T23:51:05.815Z,35.23
2018-08-13T23:53:32.948Z,33.60
2018-08-13T23:55:59.976Z,26.00
2018-08-13T23:58:27.050Z,33.10
